Aurora, CO (80011)

2:29 AM MST on November 28, 2014 (GMT -0700)
Montbello | Change Station
CLOSE
Current Station
Personal Weather Station
Location: Denver, CO
Elevation: 5364 ft
Nearby Weather Stations

Elev 5364 ft 39.78 °N, 104.82 °W | Updated 8 seconds ago

Partly Cloudy
Partly Cloudy
46.8 °F
Feels Like 47 °F
N
1.8
Wind Variable Wind from South
Gusts 5.4 mph

Today
High -- | Low -- °F
--% Chance of Precip.
Yesterday
High -- | Low -- °F
Precip. -- in
6:58 AM 4:36 PM
Waxing Crescent, 38% visible
Pressure 29.91 in
Visibility 10.0 miles
Clouds Few 22000 ft
Windchill 47 °F
Dew Point 8 °F
Humidity 20%
Rainfall 0.00 in
Snow Depth Not available.
UV 0 out of 12
Pollen .10 out of 12
Air Quality Not available.
Flu Activity Not available.
METAR KBKF 280858Z 20006KT 10SM FEW220 09/M10 A3005 RMK AO2A SLP126 T00941103 57013

More Conditions Fewer Conditions

Pressure 29.91 in
Visibility 10.0 miles
Clouds Few 22000 ft
Windchill 47 °F
Dew Point 8 °F
Humidity 20%
Rainfall 0.00 in
Snow Depth Not available.
UV 0 out of 12
Pollen .10 out of 12
Air Quality Not available.
Flu Activity Not available.
METAR KBKF 280858Z 20006KT 10SM FEW220 09/M10 A3005 RMK AO2A SLP126 T00941103 57013

More Conditions Fewer Conditions

10-Day Weather Forecast

Almanac

Astronomy

Nov. 28, 2014 Rise Set
Actual Time
Civil Twilight
Nautical Twilight
Astronomical Twilight
Moon
Length of Visible Light
Length of Day
Tomorrow will be .
, % of the Moon is Illuminated

Today's Extremes

State Highs State Lows

Community

WunderPhotos

Upload Photos

1,774,190 photos uploaded!

WunderBlogs® & News

Nearby

Air Quality

  Air Quality AQ Index Pollutant
Not available.

Snow Depth

Station Depth Elevation

Earthquake Activity

City Distance Mag. Time & Date
Minimum magnitude displayed is 2.5.

Coastal Water Temperatures

Place Temperature

Nearby Weather Stations